sensor_id;sensor_type;location;lat;lon;timestamp;P1;durP1;ratioP1;P2;durP2;ratioP2
529;SDS011;251;48.704;9.210;2023-02-28T00:00:07;1.85;;;1.48;;
529;SDS011;251;48.704;9.210;2023-02-28T00:02:36;1.40;;;1.00;;
529;SDS011;251;48.704;9.210;2023-02-28T00:05:05;3.55;;;1.70;;
529;SDS011;251;48.704;9.210;2023-02-28T00:07:33;1.83;;;1.42;;
529;SDS011;251;48.704;9.210;2023-02-28T00:10:00;2.10;;;1.23;;
529;SDS011;251;48.704;9.210;2023-02-28T00:12:27;2.05;;;1.60;;
529;SDS011;251;48.704;9.210;2023-02-28T00:14:54;3.17;;;1.27;;
529;SDS011;251;48.704;9.210;2023-02-28T00:17:20;2.05;;;1.63;;
529;SDS011;251;48.704;9.210;2023-02-28T00:19:47;1.70;;;1.30;;
529;SDS011;251;48.704;9.210;2023-02-28T00:22:16;2.58;;;2.00;;
529;SDS011;251;48.704;9.210;2023-02-28T00:24:44;1.90;;;1.27;;
529;SDS011;251;48.704;9.210;2023-02-28T00:27:10;2.10;;;1.67;;
529;SDS011;251;48.704;9.210;2023-02-28T00:29:38;2.55;;;2.20;;
529;SDS011;251;48.704;9.210;2023-02-28T00:32:05;2.35;;;1.77;;
529;SDS011;251;48.704;9.210;2023-02-28T00:34:32;5.05;;;2.53;;
529;SDS011;251;48.704;9.210;2023-02-28T00:37:02;4.40;;;1.52;;
529;SDS011;251;48.704;9.210;2023-02-28T00:39:34;2.20;;;1.42;;
529;SDS011;251;48.704;9.210;2023-02-28T00:42:02;1.50;;;1.17;;
529;SDS011;251;48.704;9.210;2023-02-28T00:44:29;1.40;;;0.80;;
529;SDS011;251;48.704;9.210;2023-02-28T00:46:56;2.78;;;1.98;;
529;SDS011;251;48.704;9.210;2023-02-28T00:49:23;3.05;;;2.75;;
529;SDS011;251;48.704;9.210;2023-02-28T00:51:51;2.35;;;1.83;;
529;SDS011;251;48.704;9.210;2023-02-28T00:54:18;1.92;;;1.45;;
529;SDS011;251;48.704;9.210;2023-02-28T00:56:47;2.95;;;1.92;;
529;SDS011;251;48.704;9.210;2023-02-28T00:59:15;1.50;;;1.10;;
529;SDS011;251;48.704;9.210;2023-02-28T01:01:43;1.80;;;1.30;;
529;SDS011;251;48.704;9.210;2023-02-28T01:04:11;1.50;;;0.90;;
529;SDS011;251;48.704;9.210;2023-02-28T01:06:39;5.07;;;2.88;;
529;SDS011;251;48.704;9.210;2023-02-28T01:09:09;1.70;;;1.45;;
529;SDS011;251;48.704;9.210;2023-02-28T01:11:37;1.60;;;1.30;;
529;SDS011;251;48.704;9.210;2023-02-28T01:14:07;1.60;;;1.20;;
529;SDS011;251;48.704;9.210;2023-02-28T01:16:35;2.25;;;1.27;;
529;SDS011;251;48.704;9.210;2023-02-28T01:19:02;4.55;;;2.47;;
529;SDS011;251;48.704;9.210;2023-02-28T01:21:29;1.65;;;1.17;;
529;SDS011;251;48.704;9.210;2023-02-28T01:23:56;2.33;;;1.58;;
529;SDS011;251;48.704;9.210;2023-02-28T01:26:23;2.53;;;1.60;;
529;SDS011;251;48.704;9.210;2023-02-28T01:28:51;2.13;;;1.20;;
529;SDS011;251;48.704;9.210;2023-02-28T01:31:20;2.60;;;2.08;;
529;SDS011;251;48.704;9.210;2023-02-28T01:33:48;3.15;;;1.67;;
529;SDS011;251;48.704;9.210;2023-02-28T01:36:16;3.15;;;2.17;;
529;SDS011;251;48.704;9.210;2023-02-28T01:38:45;2.67;;;2.30;;
529;SDS011;251;48.704;9.210;2023-02-28T01:41:14;2.38;;;1.90;;
529;SDS011;251;48.704;9.210;2023-02-28T01:43:54;1.85;;;1.00;;
529;SDS011;251;48.704;9.210;2023-02-28T01:46:24;4.15;;;2.03;;
529;SDS011;251;48.704;9.210;2023-02-28T01:48:53;1.80;;;1.33;;
529;SDS011;251;48.704;9.210;2023-02-28T01:51:26;1.40;;;1.00;;
529;SDS011;251;48.704;9.210;2023-02-28T01:53:58;2.20;;;1.55;;
529;SDS011;251;48.704;9.210;2023-02-28T01:56:29;1.92;;;1.25;;
529;SDS011;251;48.704;9.210;2023-02-28T01:58:59;3.15;;;1.85;;
529;SDS011;251;48.704;9.210;2023-02-28T02:01:28;3.38;;;2.63;;
529;SDS011;251;48.704;9.210;2023-02-28T02:03:58;2.13;;;1.50;;
529;SDS011;251;48.704;9.210;2023-02-28T02:06:28;1.75;;;1.48;;
529;SDS011;251;48.704;9.210;2023-02-28T02:08:59;2.30;;;1.63;;
529;SDS011;251;48.704;9.210;2023-02-28T02:11:27;3.00;;;1.73;;
529;SDS011;251;48.704;9.210;2023-02-28T02:14:00;2.35;;;1.75;;
529;SDS011;251;48.704;9.210;2023-02-28T02:16:48;2.38;;;1.17;;
529;SDS011;251;48.704;9.210;2023-02-28T02:19:39;2.08;;;1.50;;
529;SDS011;251;48.704;9.210;2023-02-28T02:22:36;1.90;;;1.30;;
529;SDS011;251;48.704;9.210;2023-02-28T02:25:20;5.03;;;2.67;;
529;SDS011;251;48.704;9.210;2023-02-28T02:28:03;1.60;;;1.30;;
529;SDS011;251;48.704;9.210;2023-02-28T02:36:53;13.57;;;2.30;;
529;SDS011;251;48.704;9.210;2023-02-28T02:39:29;2.00;;;1.25;;
529;SDS011;251;48.704;9.210;2023-02-28T02:41:59;5.45;;;2.08;;
529;SDS011;251;48.704;9.210;2023-02-28T02:44:29;2.20;;;1.50;;
529;SDS011;251;48.704;9.210;2023-02-28T02:47:01;4.00;;;1.63;;
529;SDS011;251;48.704;9.210;2023-02-28T02:49:33;5.07;;;2.25;;
529;SDS011;251;48.704;9.210;2023-02-28T02:52:04;2.88;;;1.90;;
529;SDS011;251;48.704;9.210;2023-02-28T02:54:36;4.75;;;1.38;;
529;SDS011;251;48.704;9.210;2023-02-28T02:57:05;2.90;;;2.10;;
529;SDS011;251;48.704;9.210;2023-02-28T02:59:35;4.25;;;2.30;;
529;SDS011;251;48.704;9.210;2023-02-28T03:02:06;8.38;;;2.20;;
529;SDS011;251;48.704;9.210;2023-02-28T03:04:35;2.75;;;2.55;;
529;SDS011;251;48.704;9.210;2023-02-28T03:07:07;7.32;;;4.53;;
529;SDS011;251;48.704;9.210;2023-02-28T03:09:34;2.90;;;2.28;;
529;SDS011;251;48.704;9.210;2023-02-28T03:12:01;1.88;;;1.42;;
529;SDS011;251;48.704;9.210;2023-02-28T03:14:36;1.75;;;1.30;;
529;SDS011;251;48.704;9.210;2023-02-28T03:17:19;1.70;;;1.27;;
529;SDS011;251;48.704;9.210;2023-02-28T03:20:11;3.60;;;2.05;;
529;SDS011;251;48.704;9.210;2023-02-28T03:22:46;1.63;;;1.40;;
529;SDS011;251;48.704;9.210;2023-02-28T03:25:28;1.70;;;1.00;;
529;SDS011;251;48.704;9.210;2023-02-28T03:28:00;3.35;;;2.17;;
529;SDS011;251;48.704;9.210;2023-02-28T03:30:33;2.50;;;1.80;;
529;SDS011;251;48.704;9.210;2023-02-28T03:33:05;3.10;;;2.55;;
529;SDS011;251;48.704;9.210;2023-02-28T03:35:38;2.50;;;1.70;;
529;SDS011;251;48.704;9.210;2023-02-28T03:38:10;3.42;;;2.15;;
529;SDS011;251;48.704;9.210;2023-02-28T03:40:42;2.70;;;2.33;;
529;SDS011;251;48.704;9.210;2023-02-28T03:43:14;2.17;;;1.60;;
529;SDS011;251;48.704;9.210;2023-02-28T03:45:47;2.85;;;2.28;;
529;SDS011;251;48.704;9.210;2023-02-28T03:48:19;1.88;;;1.65;;
529;SDS011;251;48.704;9.210;2023-02-28T03:50:51;3.05;;;1.88;;
529;SDS011;251;48.704;9.210;2023-02-28T03:53:22;2.70;;;1.73;;
529;SDS011;251;48.704;9.210;2023-02-28T03:55:54;1.45;;;0.95;;
529;SDS011;251;48.704;9.210;2023-02-28T03:58:27;2.63;;;1.80;;
529;SDS011;251;48.704;9.210;2023-02-28T04:00:59;2.28;;;2.05;;
529;SDS011;251;48.704;9.210;2023-02-28T04:03:33;3.05;;;2.30;;
529;SDS011;251;48.704;9.210;2023-02-28T04:06:01;3.08;;;1.75;;
529;SDS011;251;48.704;9.210;2023-02-28T04:08:30;3.00;;;1.90;;
529;SDS011;251;48.704;9.210;2023-02-28T04:10:57;8.25;;;2.50;;
529;SDS011;251;48.704;9.210;2023-02-28T04:13:31;2.42;;;1.88;;
529;SDS011;251;48.704;9.210;2023-02-28T04:15:57;2.00;;;1.45;;
529;SDS011;251;48.704;9.210;2023-02-28T04:18:24;3.20;;;2.90;;
529;SDS011;251;48.704;9.210;2023-02-28T04:20:51;1.60;;;1.20;;
529;SDS011;251;48.704;9.210;2023-02-28T04:23:18;4.05;;;2.45;;
529;SDS011;251;48.704;9.210;2023-02-28T04:25:46;2.85;;;1.83;;
529;SDS011;251;48.704;9.210;2023-02-28T04:28:13;2.03;;;1.80;;
529;SDS011;251;48.704;9.210;2023-02-28T04:30:39;2.88;;;2.13;;
529;SDS011;251;48.704;9.210;2023-02-28T04:33:06;3.05;;;1.65;;
529;SDS011;251;48.704;9.210;2023-02-28T04:35:33;2.95;;;2.58;;
529;SDS011;251;48.704;9.210;2023-02-28T04:38:00;4.95;;;3.13;;
529;SDS011;251;48.704;9.210;2023-02-28T04:40:26;2.50;;;1.77;;
529;SDS011;251;48.704;9.210;2023-02-28T04:42:54;2.85;;;1.90;;
529;SDS011;251;48.704;9.210;2023-02-28T04:45:21;5.13;;;4.72;;
529;SDS011;251;48.704;9.210;2023-02-28T04:47:48;2.95;;;2.47;;
529;SDS011;251;48.704;9.210;2023-02-28T04:50:15;2.33;;;1.85;;
529;SDS011;251;48.704;9.210;2023-02-28T04:52:42;2.83;;;1.88;;
529;SDS011;251;48.704;9.210;2023-02-28T04:55:09;2.65;;;1.58;;
529;SDS011;251;48.704;9.210;2023-02-28T04:57:36;3.45;;;2.17;;
529;SDS011;251;48.704;9.210;2023-02-28T05:00:04;2.72;;;1.95;;
529;SDS011;251;48.704;9.210;2023-02-28T05:02:36;2.05;;;1.40;;
529;SDS011;251;48.704;9.210;2023-02-28T05:05:04;3.17;;;1.75;;
529;SDS011;251;48.704;9.210;2023-02-28T05:07:31;2.83;;;1.80;;
529;SDS011;251;48.704;9.210;2023-02-28T05:09:58;3.25;;;2.42;;
529;SDS011;251;48.704;9.210;2023-02-28T05:12:25;2.45;;;1.75;;
529;SDS011;251;48.704;9.210;2023-02-28T05:14:51;4.53;;;2.55;;
529;SDS011;251;48.704;9.210;2023-02-28T05:17:19;3.72;;;1.70;;
529;SDS011;251;48.704;9.210;2023-02-28T05:19:46;5.35;;;3.35;;
529;SDS011;251;48.704;9.210;2023-02-28T05:22:13;4.13;;;2.53;;
529;SDS011;251;48.704;9.210;2023-02-28T05:24:41;3.60;;;2.00;;
529;SDS011;251;48.704;9.210;2023-02-28T05:27:08;2.88;;;2.38;;
529;SDS011;251;48.704;9.210;2023-02-28T05:29:35;4.65;;;3.42;;
529;SDS011;251;48.704;9.210;2023-02-28T05:32:07;2.47;;;2.05;;
529;SDS011;251;48.704;9.210;2023-02-28T05:34:37;2.55;;;1.90;;
529;SDS011;251;48.704;9.210;2023-02-28T05:37:04;2.40;;;1.90;;
529;SDS011;251;48.704;9.210;2023-02-28T05:39:31;3.40;;;2.05;;
529;SDS011;251;48.704;9.210;2023-02-28T05:41:58;1.90;;;1.17;;
529;SDS011;251;48.704;9.210;2023-02-28T05:44:25;5.63;;;2.35;;
529;SDS011;251;48.704;9.210;2023-02-28T05:46:52;3.17;;;1.90;;
529;SDS011;251;48.704;9.210;2023-02-28T05:49:19;3.90;;;2.45;;
529;SDS011;251;48.704;9.210;2023-02-28T05:51:47;3.42;;;3.03;;
529;SDS011;251;48.704;9.210;2023-02-28T05:54:13;3.75;;;3.00;;
529;SDS011;251;48.704;9.210;2023-02-28T05:56:40;3.13;;;1.80;;
529;SDS011;251;48.704;9.210;2023-02-28T05:59:09;4.00;;;2.80;;
529;SDS011;251;48.704;9.210;2023-02-28T06:01:36;4.22;;;2.53;;
529;SDS011;251;48.704;9.210;2023-02-28T06:04:04;3.55;;;3.00;;
529;SDS011;251;48.704;9.210;2023-02-28T06:06:32;5.25;;;2.70;;
529;SDS011;251;48.704;9.210;2023-02-28T06:09:02;5.20;;;3.55;;
529;SDS011;251;48.704;9.210;2023-02-28T06:11:29;3.50;;;2.80;;
529;SDS011;251;48.704;9.210;2023-02-28T06:13:57;2.78;;;2.05;;
529;SDS011;251;48.704;9.210;2023-02-28T06:16:25;3.35;;;2.15;;
529;SDS011;251;48.704;9.210;2023-02-28T06:18:53;4.70;;;2.65;;
529;SDS011;251;48.704;9.210;2023-02-28T06:21:21;4.75;;;2.13;;
529;SDS011;251;48.704;9.210;2023-02-28T06:23:48;4.68;;;2.65;;
529;SDS011;251;48.704;9.210;2023-02-28T06:26:16;2.05;;;1.67;;
529;SDS011;251;48.704;9.210;2023-02-28T06:28:43;3.17;;;2.25;;
529;SDS011;251;48.704;9.210;2023-02-28T06:31:10;2.70;;;2.20;;
529;SDS011;251;48.704;9.210;2023-02-28T06:33:38;2.95;;;2.03;;
529;SDS011;251;48.704;9.210;2023-02-28T06:36:06;2.80;;;1.80;;
529;SDS011;251;48.704;9.210;2023-02-28T06:38:34;2.88;;;2.38;;
529;SDS011;251;48.704;9.210;2023-02-28T06:41:01;3.28;;;2.35;;
529;SDS011;251;48.704;9.210;2023-02-28T06:43:31;2.70;;;1.95;;
529;SDS011;251;48.704;9.210;2023-02-28T06:46:01;2.30;;;2.10;;
529;SDS011;251;48.704;9.210;2023-02-28T06:48:29;4.25;;;2.35;;
529;SDS011;251;48.704;9.210;2023-02-28T06:51:01;4.32;;;2.85;;
529;SDS011;251;48.704;9.210;2023-02-28T06:53:29;4.63;;;2.40;;
529;SDS011;251;48.704;9.210;2023-02-28T06:55:56;3.80;;;2.15;;
529;SDS011;251;48.704;9.210;2023-02-28T06:58:22;5.78;;;3.10;;
529;SDS011;251;48.704;9.210;2023-02-28T07:00:51;4.07;;;2.70;;
529;SDS011;251;48.704;9.210;2023-02-28T07:03:18;4.13;;;2.60;;
529;SDS011;251;48.704;9.210;2023-02-28T07:05:47;2.60;;;2.25;;
529;SDS011;251;48.704;9.210;2023-02-28T07:08:14;4.30;;;3.22;;
529;SDS011;251;48.704;9.210;2023-02-28T07:10:41;2.72;;;2.53;;
529;SDS011;251;48.704;9.210;2023-02-28T07:13:08;2.63;;;1.90;;
529;SDS011;251;48.704;9.210;2023-02-28T07:15:35;2.88;;;2.55;;
529;SDS011;251;48.704;9.210;2023-02-28T07:18:04;6.22;;;4.18;;
529;SDS011;251;48.704;9.210;2023-02-28T07:20:30;29.77;;;16.77;;
529;SDS011;251;48.704;9.210;2023-02-28T07:22:57;40.42;;;20.08;;
529;SDS011;251;48.704;9.210;2023-02-28T07:25:24;33.88;;;13.70;;
529;SDS011;251;48.704;9.210;2023-02-28T07:27:53;19.83;;;8.63;;
529;SDS011;251;48.704;9.210;2023-02-28T07:30:20;14.15;;;7.63;;
529;SDS011;251;48.704;9.210;2023-02-28T07:32:47;8.70;;;6.20;;
529;SDS011;251;48.704;9.210;2023-02-28T07:35:15;10.30;;;5.05;;
529;SDS011;251;48.704;9.210;2023-02-28T07:37:42;9.88;;;5.53;;
529;SDS011;251;48.704;9.210;2023-02-28T07:40:09;12.73;;;4.18;;
529;SDS011;251;48.704;9.210;2023-02-28T07:42:37;16.60;;;7.00;;
529;SDS011;251;48.704;9.210;2023-02-28T07:45:05;6.05;;;3.10;;
529;SDS011;251;48.704;9.210;2023-02-28T07:47:32;4.13;;;3.55;;
529;SDS011;251;48.704;9.210;2023-02-28T07:49:59;11.18;;;5.43;;
529;SDS011;251;48.704;9.210;2023-02-28T07:52:27;5.90;;;3.22;;
529;SDS011;251;48.704;9.210;2023-02-28T07:54:54;9.98;;;6.63;;
529;SDS011;251;48.704;9.210;2023-02-28T07:57:21;4.30;;;3.70;;
529;SDS011;251;48.704;9.210;2023-02-28T07:59:48;3.17;;;2.47;;
529;SDS011;251;48.704;9.210;2023-02-28T08:02:15;6.00;;;3.03;;
529;SDS011;251;48.704;9.210;2023-02-28T08:04:44;6.03;;;3.85;;
529;SDS011;251;48.704;9.210;2023-02-28T08:07:12;5.05;;;3.97;;
529;SDS011;251;48.704;9.210;2023-02-28T08:09:40;6.35;;;4.00;;
529;SDS011;251;48.704;9.210;2023-02-28T08:12:07;5.40;;;4.60;;
529;SDS011;251;48.704;9.210;2023-02-28T08:14:35;3.95;;;2.92;;
529;SDS011;251;48.704;9.210;2023-02-28T08:17:02;4.88;;;3.30;;
529;SDS011;251;48.704;9.210;2023-02-28T08:19:29;7.68;;;1.75;;
529;SDS011;251;48.704;9.210;2023-02-28T08:21:56;3.70;;;3.10;;
529;SDS011;251;48.704;9.210;2023-02-28T08:24:23;5.10;;;3.42;;
529;SDS011;251;48.704;9.210;2023-02-28T08:26:51;2.78;;;2.17;;
529;SDS011;251;48.704;9.210;2023-02-28T08:29:18;5.75;;;3.88;;
529;SDS011;251;48.704;9.210;2023-02-28T08:31:45;3.63;;;2.72;;
529;SDS011;251;48.704;9.210;2023-02-28T08:34:12;5.18;;;3.67;;
529;SDS011;251;48.704;9.210;2023-02-28T08:36:40;5.50;;;4.78;;
529;SDS011;251;48.704;9.210;2023-02-28T08:39:07;3.55;;;2.58;;
529;SDS011;251;48.704;9.210;2023-02-28T08:41:34;3.00;;;2.35;;
529;SDS011;251;48.704;9.210;2023-02-28T08:44:03;5.88;;;3.15;;
529;SDS011;251;48.704;9.210;2023-02-28T08:46:30;4.93;;;3.20;;
529;SDS011;251;48.704;9.210;2023-02-28T08:48:56;6.43;;;4.57;;
529;SDS011;251;48.704;9.210;2023-02-28T08:51:26;6.20;;;3.13;;
529;SDS011;251;48.704;9.210;2023-02-28T08:53:54;5.90;;;3.08;;
529;SDS011;251;48.704;9.210;2023-02-28T08:56:22;2.92;;;2.28;;
529;SDS011;251;48.704;9.210;2023-02-28T08:58:49;3.78;;;2.42;;
529;SDS011;251;48.704;9.210;2023-02-28T09:01:18;3.60;;;2.75;;
529;SDS011;251;48.704;9.210;2023-02-28T09:03:47;5.70;;;3.78;;
529;SDS011;251;48.704;9.210;2023-02-28T09:06:15;3.65;;;3.25;;
529;SDS011;251;48.704;9.210;2023-02-28T09:08:43;4.05;;;3.38;;
529;SDS011;251;48.704;9.210;2023-02-28T09:11:10;8.88;;;3.85;;
529;SDS011;251;48.704;9.210;2023-02-28T09:13:38;4.70;;;3.30;;
529;SDS011;251;48.704;9.210;2023-02-28T09:16:06;5.03;;;2.83;;
529;SDS011;251;48.704;9.210;2023-02-28T09:18:35;3.58;;;2.85;;
529;SDS011;251;48.704;9.210;2023-02-28T09:21:03;2.40;;;1.90;;
529;SDS011;251;48.704;9.210;2023-02-28T09:23:31;4.30;;;2.80;;
529;SDS011;251;48.704;9.210;2023-02-28T09:25:58;3.30;;;2.55;;
529;SDS011;251;48.704;9.210;2023-02-28T09:28:24;6.03;;;3.45;;
529;SDS011;251;48.704;9.210;2023-02-28T09:30:52;2.70;;;1.92;;
529;SDS011;251;48.704;9.210;2023-02-28T09:33:21;3.90;;;3.03;;
529;SDS011;251;48.704;9.210;2023-02-28T09:35:50;3.85;;;2.92;;
529;SDS011;251;48.704;9.210;2023-02-28T09:38:17;5.43;;;3.97;;
529;SDS011;251;48.704;9.210;2023-02-28T09:40:47;3.60;;;3.13;;
529;SDS011;251;48.704;9.210;2023-02-28T09:43:15;5.38;;;4.10;;
529;SDS011;251;48.704;9.210;2023-02-28T09:45:45;8.13;;;4.20;;
529;SDS011;251;48.704;9.210;2023-02-28T09:48:16;3.33;;;2.80;;
529;SDS011;251;48.704;9.210;2023-02-28T09:50:47;6.18;;;5.57;;
529;SDS011;251;48.704;9.210;2023-02-28T09:53:19;5.68;;;3.33;;
529;SDS011;251;48.704;9.210;2023-02-28T09:55:52;3.88;;;2.72;;
529;SDS011;251;48.704;9.210;2023-02-28T09:58:23;6.57;;;4.70;;
529;SDS011;251;48.704;9.210;2023-02-28T10:00:58;3.55;;;2.35;;
529;SDS011;251;48.704;9.210;2023-02-28T10:03:30;3.33;;;2.92;;
529;SDS011;251;48.704;9.210;2023-02-28T10:06:04;4.35;;;2.90;;
529;SDS011;251;48.704;9.210;2023-02-28T10:08:36;2.90;;;2.35;;
529;SDS011;251;48.704;9.210;2023-02-28T10:11:09;5.00;;;4.53;;
529;SDS011;251;48.704;9.210;2023-02-28T10:13:40;4.00;;;3.10;;
529;SDS011;251;48.704;9.210;2023-02-28T10:16:20;3.72;;;3.17;;
529;SDS011;251;48.704;9.210;2023-02-28T10:18:52;4.07;;;2.70;;
529;SDS011;251;48.704;9.210;2023-02-28T10:21:25;4.25;;;3.85;;
529;SDS011;251;48.704;9.210;2023-02-28T10:23:56;8.98;;;4.10;;
529;SDS011;251;48.704;9.210;2023-02-28T10:26:28;4.82;;;3.38;;
529;SDS011;251;48.704;9.210;2023-02-28T10:28:57;4.95;;;3.33;;
529;SDS011;251;48.704;9.210;2023-02-28T10:31:25;4.80;;;3.78;;
529;SDS011;251;48.704;9.210;2023-02-28T10:33:52;8.48;;;3.40;;
529;SDS011;251;48.704;9.210;2023-02-28T10:36:19;5.88;;;4.03;;
529;SDS011;251;48.704;9.210;2023-02-28T10:38:48;9.30;;;5.22;;
529;SDS011;251;48.704;9.210;2023-02-28T10:41:16;3.63;;;3.25;;
529;SDS011;251;48.704;9.210;2023-02-28T10:43:57;3.67;;;3.28;;
529;SDS011;251;48.704;9.210;2023-02-28T10:46:40;4.63;;;3.45;;
529;SDS011;251;48.704;9.210;2023-02-28T10:49:12;5.93;;;3.33;;
529;SDS011;251;48.704;9.210;2023-02-28T10:51:41;10.98;;;4.32;;
529;SDS011;251;48.704;9.210;2023-02-28T10:54:16;5.90;;;4.78;;
529;SDS011;251;48.704;9.210;2023-02-28T10:56:45;5.25;;;3.13;;
529;SDS011;251;48.704;9.210;2023-02-28T10:59:27;7.10;;;3.72;;
529;SDS011;251;48.704;9.210;2023-02-28T11:01:56;8.18;;;5.00;;
529;SDS011;251;48.704;9.210;2023-02-28T11:04:33;17.33;;;4.20;;
529;SDS011;251;48.704;9.210;2023-02-28T11:07:05;6.80;;;3.70;;
529;SDS011;251;48.704;9.210;2023-02-28T11:09:44;7.43;;;4.20;;
529;SDS011;251;48.704;9.210;2023-02-28T11:12:19;8.38;;;6.43;;
529;SDS011;251;48.704;9.210;2023-02-28T11:14:51;9.18;;;5.45;;
529;SDS011;251;48.704;9.210;2023-02-28T11:17:20;6.13;;;4.93;;
529;SDS011;251;48.704;9.210;2023-02-28T11:19:50;8.25;;;4.43;;
529;SDS011;251;48.704;9.210;2023-02-28T11:22:19;8.10;;;5.05;;
529;SDS011;251;48.704;9.210;2023-02-28T11:24:51;6.72;;;3.72;;
529;SDS011;251;48.704;9.210;2023-02-28T11:27:25;8.15;;;4.47;;
529;SDS011;251;48.704;9.210;2023-02-28T11:30:13;7.80;;;5.28;;
529;SDS011;251;48.704;9.210;2023-02-28T11:32:59;5.15;;;3.75;;
529;SDS011;251;48.704;9.210;2023-02-28T11:35:28;7.43;;;3.88;;
529;SDS011;251;48.704;9.210;2023-02-28T11:37:59;13.63;;;8.15;;
529;SDS011;251;48.704;9.210;2023-02-28T11:40:31;4.65;;;2.97;;
529;SDS011;251;48.704;9.210;2023-02-28T11:43:11;6.25;;;3.63;;
529;SDS011;251;48.704;9.210;2023-02-28T11:45:54;6.75;;;5.63;;
529;SDS011;251;48.704;9.210;2023-02-28T11:48:33;8.55;;;5.10;;
529;SDS011;251;48.704;9.210;2023-02-28T11:51:12;5.43;;;4.07;;
529;SDS011;251;48.704;9.210;2023-02-28T11:56:57;9.20;;;5.10;;
529;SDS011;251;48.704;9.210;2023-02-28T11:59:31;5.70;;;5.10;;
529;SDS011;251;48.704;9.210;2023-02-28T12:02:08;4.72;;;3.35;;
529;SDS011;251;48.704;9.210;2023-02-28T12:04:52;3.85;;;2.50;;
529;SDS011;251;48.704;9.210;2023-02-28T12:07:36;6.43;;;4.22;;
529;SDS011;251;48.704;9.210;2023-02-28T12:10:10;5.63;;;2.85;;
529;SDS011;251;48.704;9.210;2023-02-28T12:12:49;4.00;;;2.72;;
529;SDS011;251;48.704;9.210;2023-02-28T12:15:42;4.03;;;3.58;;
529;SDS011;251;48.704;9.210;2023-02-28T12:21:26;5.35;;;3.92;;
529;SDS011;251;48.704;9.210;2023-02-28T12:24:17;5.28;;;3.53;;
529;SDS011;251;48.704;9.210;2023-02-28T12:26:53;6.93;;;5.65;;
529;SDS011;251;48.704;9.210;2023-02-28T12:29:26;7.07;;;5.93;;
529;SDS011;251;48.704;9.210;2023-02-28T12:31:56;5.30;;;3.28;;
529;SDS011;251;48.704;9.210;2023-02-28T12:34:28;5.88;;;3.58;;
529;SDS011;251;48.704;9.210;2023-02-28T12:37:00;5.05;;;2.80;;
529;SDS011;251;48.704;9.210;2023-02-28T12:39:31;6.95;;;6.20;;
529;SDS011;251;48.704;9.210;2023-02-28T12:42:03;4.10;;;3.70;;
529;SDS011;251;48.704;9.210;2023-02-28T12:44:39;6.05;;;2.95;;
529;SDS011;251;48.704;9.210;2023-02-28T12:47:11;4.82;;;3.60;;
529;SDS011;251;48.704;9.210;2023-02-28T12:49:42;5.38;;;4.78;;
529;SDS011;251;48.704;9.210;2023-02-28T12:52:12;4.25;;;3.80;;
529;SDS011;251;48.704;9.210;2023-02-28T12:54:44;2.80;;;2.40;;
529;SDS011;251;48.704;9.210;2023-02-28T12:57:17;5.13;;;3.63;;
529;SDS011;251;48.704;9.210;2023-02-28T12:59:53;2.50;;;2.25;;
529;SDS011;251;48.704;9.210;2023-02-28T13:05:26;5.07;;;3.50;;
529;SDS011;251;48.704;9.210;2023-02-28T13:08:11;4.18;;;3.25;;
529;SDS011;251;48.704;9.210;2023-02-28T13:10:50;5.13;;;3.67;;
529;SDS011;251;48.704;9.210;2023-02-28T13:13:20;2.10;;;1.67;;
529;SDS011;251;48.704;9.210;2023-02-28T13:16:02;5.75;;;4.88;;
529;SDS011;251;48.704;9.210;2023-02-28T13:18:31;4.55;;;3.78;;
529;SDS011;251;48.704;9.210;2023-02-28T13:21:04;5.13;;;4.38;;
529;SDS011;251;48.704;9.210;2023-02-28T13:23:37;4.00;;;2.85;;
529;SDS011;251;48.704;9.210;2023-02-28T13:29:30;5.38;;;2.90;;
529;SDS011;251;48.704;9.210;2023-02-28T13:35:13;11.93;;;3.28;;
529;SDS011;251;48.704;9.210;2023-02-28T13:37:44;5.20;;;3.35;;
529;SDS011;251;48.704;9.210;2023-02-28T13:40:31;6.93;;;4.10;;
529;SDS011;251;48.704;9.210;2023-02-28T13:43:02;3.53;;;2.92;;
529;SDS011;251;48.704;9.210;2023-02-28T13:45:33;7.28;;;2.83;;
529;SDS011;251;48.704;9.210;2023-02-28T13:48:04;7.53;;;4.13;;
529;SDS011;251;48.704;9.210;2023-02-28T13:50:42;4.40;;;3.45;;
529;SDS011;251;48.704;9.210;2023-02-28T13:56:27;4.25;;;3.50;;
529;SDS011;251;48.704;9.210;2023-02-28T13:59:02;5.30;;;3.20;;
529;SDS011;251;48.704;9.210;2023-02-28T14:01:45;2.60;;;2.03;;
529;SDS011;251;48.704;9.210;2023-02-28T14:07:15;5.88;;;3.65;;
529;SDS011;251;48.704;9.210;2023-02-28T14:09:46;3.80;;;2.70;;
529;SDS011;251;48.704;9.210;2023-02-28T14:15:40;9.43;;;4.65;;
529;SDS011;251;48.704;9.210;2023-02-28T14:18:14;4.35;;;3.50;;
529;SDS011;251;48.704;9.210;2023-02-28T14:21:03;21.33;;;7.90;;
529;SDS011;251;48.704;9.210;2023-02-28T14:26:48;6.95;;;4.05;;
529;SDS011;251;48.704;9.210;2023-02-28T14:29:34;3.75;;;2.20;;
529;SDS011;251;48.704;9.210;2023-02-28T14:32:11;6.43;;;4.38;;
529;SDS011;251;48.704;9.210;2023-02-28T14:34:46;5.60;;;3.42;;
529;SDS011;251;48.704;9.210;2023-02-28T14:37:20;4.63;;;3.97;;
529;SDS011;251;48.704;9.210;2023-02-28T14:39:52;6.35;;;4.00;;
529;SDS011;251;48.704;9.210;2023-02-28T14:42:30;3.03;;;2.13;;
529;SDS011;251;48.704;9.210;2023-02-28T14:44:59;6.43;;;2.92;;
529;SDS011;251;48.704;9.210;2023-02-28T14:47:27;12.32;;;5.80;;
529;SDS011;251;48.704;9.210;2023-02-28T14:49:58;4.78;;;3.20;;
529;SDS011;251;48.704;9.210;2023-02-28T14:52:27;7.68;;;4.28;;
529;SDS011;251;48.704;9.210;2023-02-28T14:54:57;4.05;;;3.65;;
529;SDS011;251;48.704;9.210;2023-02-28T14:57:29;3.45;;;2.22;;
529;SDS011;251;48.704;9.210;2023-02-28T14:59:58;2.92;;;2.03;;
529;SDS011;251;48.704;9.210;2023-02-28T15:02:29;3.78;;;3.05;;
529;SDS011;251;48.704;9.210;2023-02-28T15:04:58;4.63;;;3.55;;
529;SDS011;251;48.704;9.210;2023-02-28T15:07:27;4.00;;;2.97;;
529;SDS011;251;48.704;9.210;2023-02-28T15:10:08;3.55;;;2.60;;
529;SDS011;251;48.704;9.210;2023-02-28T15:12:36;3.88;;;2.38;;
529;SDS011;251;48.704;9.210;2023-02-28T15:15:05;14.35;;;3.78;;
529;SDS011;251;48.704;9.210;2023-02-28T15:17:32;7.63;;;3.17;;
529;SDS011;251;48.704;9.210;2023-02-28T15:20:01;5.85;;;3.92;;
529;SDS011;251;48.704;9.210;2023-02-28T15:22:30;4.95;;;2.97;;
529;SDS011;251;48.704;9.210;2023-02-28T15:25:02;4.43;;;3.95;;
529;SDS011;251;48.704;9.210;2023-02-28T15:27:31;4.75;;;3.17;;
529;SDS011;251;48.704;9.210;2023-02-28T15:30:00;4.07;;;3.08;;
529;SDS011;251;48.704;9.210;2023-02-28T15:32:32;5.65;;;4.22;;
529;SDS011;251;48.704;9.210;2023-02-28T15:35:17;5.13;;;3.38;;
529;SDS011;251;48.704;9.210;2023-02-28T15:37:48;3.25;;;2.78;;
529;SDS011;251;48.704;9.210;2023-02-28T15:40:22;5.10;;;2.45;;
529;SDS011;251;48.704;9.210;2023-02-28T15:43:05;6.25;;;2.70;;
529;SDS011;251;48.704;9.210;2023-02-28T15:45:37;5.88;;;3.38;;
529;SDS011;251;48.704;9.210;2023-02-28T15:48:13;3.25;;;2.75;;
529;SDS011;251;48.704;9.210;2023-02-28T15:50:43;5.70;;;4.75;;
529;SDS011;251;48.704;9.210;2023-02-28T15:53:16;5.63;;;3.70;;
529;SDS011;251;48.704;9.210;2023-02-28T15:55:51;4.50;;;3.50;;
529;SDS011;251;48.704;9.210;2023-02-28T15:58:21;4.97;;;3.30;;
529;SDS011;251;48.704;9.210;2023-02-28T16:01:00;2.28;;;2.00;;
529;SDS011;251;48.704;9.210;2023-02-28T16:03:34;5.15;;;4.65;;
529;SDS011;251;48.704;9.210;2023-02-28T16:09:00;4.30;;;2.75;;
529;SDS011;251;48.704;9.210;2023-02-28T16:11:27;4.60;;;4.10;;
529;SDS011;251;48.704;9.210;2023-02-28T16:13:55;3.03;;;2.58;;
529;SDS011;251;48.704;9.210;2023-02-28T16:16:24;14.15;;;4.30;;
529;SDS011;251;48.704;9.210;2023-02-28T16:18:52;5.45;;;3.53;;
529;SDS011;251;48.704;9.210;2023-02-28T16:21:19;3.38;;;3.05;;
529;SDS011;251;48.704;9.210;2023-02-28T16:23:46;3.50;;;3.13;;
529;SDS011;251;48.704;9.210;2023-02-28T16:26:18;6.10;;;4.07;;
529;SDS011;251;48.704;9.210;2023-02-28T16:28:47;5.63;;;5.15;;
529;SDS011;251;48.704;9.210;2023-02-28T16:31:14;4.57;;;3.20;;
529;SDS011;251;48.704;9.210;2023-02-28T16:33:41;3.67;;;2.97;;
529;SDS011;251;48.704;9.210;2023-02-28T16:36:09;6.20;;;2.72;;
529;SDS011;251;48.704;9.210;2023-02-28T16:38:39;7.47;;;4.03;;
529;SDS011;251;48.704;9.210;2023-02-28T16:41:06;6.45;;;3.78;;
529;SDS011;251;48.704;9.210;2023-02-28T16:43:34;8.20;;;4.25;;